Nashville, North Carolina
Current Conditions -  °F | °C
As of 2:53 AM on Thursday 27 Nov 2014 (Local Time) from KRWI Reporting Station
Broken Clouds Broken Clouds  
Wind Chill: 38°   Ceiling: 5500
Heat Index: 38°   Visibility: 7mi
Dew Point: 36°   Wind: 0mph
Humidity: 93%   Direction: NA
Pressure: 30.08"   Gusts: NA
Location:  35.97°N, 77.97°W
Report Text: KRWI 270753Z AUTO 00000KT 7SM BKN055 03/02 A3008 RMK AO2 SLP185 T00330022
Loading
Personal Weather Stations






























Interactive Weather Map New forecast layout! Learn more

10-Day Weather Forecast

Advertisements
Track Severe Weather on mobile